Time;durP1;ratioP1;P1;durP2;ratioP2;P2;SDS_P1;SDS_P2;PMS_P1;PMS_P2;Temp;Humidity;BMP_temperature;BMP_pressure;BME280_temperature;BME280_humidity;BME280_pressure;Samples;Min_cycle;Max_cycle;Signal;HPM_P1;HPM_P2
2023/07/06 00:02:22;;;;;;;10.60;4.30;;;;;;;;;;5017349;28;20458;-74
2023/07/06 00:04:49;;;;;;;6.35;3.90;;;;;;;;;;5018611;28;20018;-74
2023/07/06 00:07:21;;;;;;;7.03;4.07;;;;;;;;;;5018562;28;20152;-74
2023/07/06 00:09:50;;;;;;;7.82;4.30;;;;;;;;;;5018783;28;20041;-74
2023/07/06 00:12:18;;;;;;;9.45;4.20;;;;;;;;;;5018214;28;20097;-74
2023/07/06 00:14:44;;;;;;;8.18;4.18;;;;;;;;;;5018294;28;20425;-73
2023/07/06 00:17:12;;;;;;;6.88;4.00;;;;;;;;;;5006363;28;20757;-74
2023/07/06 00:19:39;;;;;;;8.77;4.30;;;;;;;;;;5003429;28;20029;-73
2023/07/06 00:22:05;;;;;;;8.70;4.22;;;;;;;;;;5017014;28;20030;-73
2023/07/06 00:24:31;;;;;;;6.45;4.35;;;;;;;;;;5015539;28;20021;-74
2023/07/06 00:26:57;;;;;;;7.20;4.20;;;;;;;;;;5015270;28;20022;-73
2023/07/06 00:29:23;;;;;;;8.70;4.50;;;;;;;;;;5019888;28;20116;-74
2023/07/06 00:32:03;;;;;;;9.27;4.28;;;;;;;;;;5035135;28;20091;-74
2023/07/06 00:34:32;;;;;;;6.57;4.22;;;;;;;;;;5035412;28;20020;-73
2023/07/06 00:36:58;;;;;;;6.95;3.75;;;;;;;;;;5035227;28;20068;-73
2023/07/06 00:39:26;;;;;;;5.88;4.53;;;;;;;;;;5034809;28;20021;-74
2023/07/06 00:41:52;;;;;;;7.75;3.83;;;;;;;;;;5020694;28;20083;-74
2023/07/06 00:44:37;;;;;;;5.75;3.70;;;;;;;;;;5023371;28;20033;-74
2023/07/06 00:47:03;;;;;;;10.02;4.03;;;;;;;;;;5034707;28;20080;-74
2023/07/06 00:49:29;;;;;;;7.15;3.70;;;;;;;;;;5034673;28;20033;-74
2023/07/06 00:52:00;;;;;;;8.40;3.55;;;;;;;;;;5030138;28;20033;-74
2023/07/06 00:54:28;;;;;;;6.55;3.78;;;;;;;;;;5015303;28;20114;-74
2023/07/06 00:56:55;;;;;;;7.20;3.75;;;;;;;;;;5033505;28;20064;-74
2023/07/06 00:59:26;;;;;;;8.68;3.58;;;;;;;;;;5034447;28;20428;-74
2023/07/06 01:01:52;;;;;;;7.25;3.80;;;;;;;;;;5034753;28;20032;-73
2023/07/06 01:04:19;;;;;;;8.02;3.60;;;;;;;;;;5033472;28;20132;-74
2023/07/06 01:06:48;;;;;;;6.03;3.53;;;;;;;;;;5034375;28;20155;-74
2023/07/06 01:09:15;;;;;;;5.20;3.40;;;;;;;;;;5034173;28;20354;-74
2023/07/06 01:11:41;;;;;;;10.88;4.18;;;;;;;;;;5034156;28;20056;-74
2023/07/06 01:14:12;;;;;;;9.02;4.18;;;;;;;;;;5034168;28;20018;-74
2023/07/06 01:16:57;;;;;;;9.18;5.15;;;;;;;;;;5034415;28;20013;-74
2023/07/06 01:19:23;;;;;;;9.00;5.07;;;;;;;;;;5034056;28;20026;-74
2023/07/06 01:21:58;;;;;;;7.57;4.90;;;;;;;;;;5034086;28;20026;-74
2023/07/06 01:24:25;;;;;;;10.25;4.90;;;;;;;;;;5034007;28;20040;-73
2023/07/06 01:26:51;;;;;;;8.95;4.65;;;;;;;;;;5034312;28;20055;-74
2023/07/06 01:29:26;;;;;;;8.73;4.20;;;;;;;;;;5033897;28;20037;-73
2023/07/06 01:31:57;;;;;;;11.38;4.80;;;;;;;;;;5033867;28;20037;-73
2023/07/06 01:34:24;;;;;;;8.43;4.32;;;;;;;;;;5033731;28;20030;-73
2023/07/06 01:37:02;;;;;;;5.45;4.10;;;;;;;;;;5032972;28;20040;-74
2023/07/06 01:39:29;;;;;;;10.43;5.05;;;;;;;;;;5034062;28;20048;-73
2023/07/06 01:42:13;;;;;;;6.15;4.30;;;;;;;;;;5019580;28;20041;-73
2023/07/06 01:44:46;;;;;;;12.32;4.20;;;;;;;;;;5013909;28;20022;-74
2023/07/06 01:47:13;;;;;;;8.73;4.70;;;;;;;;;;5014169;28;20026;-74
2023/07/06 01:49:39;;;;;;;7.82;4.78;;;;;;;;;;5013753;28;20022;-73
2023/07/06 01:52:22;;;;;;;8.85;4.22;;;;;;;;;;5013715;28;20043;-73
2023/07/06 01:55:08;;;;;;;8.43;4.38;;;;;;;;;;5027178;28;20112;-74
2023/07/06 01:57:38;;;;;;;7.13;4.47;;;;;;;;;;5033737;28;20064;-73
2023/07/06 02:00:10;;;;;;;10.20;5.10;;;;;;;;;;5033565;28;20057;-74
2023/07/06 02:02:37;;;;;;;12.02;4.90;;;;;;;;;;5033355;28;20049;-73
2023/07/06 02:05:03;;;;;;;7.45;4.63;;;;;;;;;;5029148;28;20487;-73
2023/07/06 02:07:31;;;;;;;8.45;4.53;;;;;;;;;;5013748;28;20033;-73
2023/07/06 02:09:58;;;;;;;8.32;4.75;;;;;;;;;;5013796;28;20461;-73
2023/07/06 02:12:24;;;;;;;8.85;4.53;;;;;;;;;;5013084;28;20119;-73
2023/07/06 02:14:51;;;;;;;11.07;4.55;;;;;;;;;;5021894;28;20061;-73
2023/07/06 02:17:17;;;;;;;12.20;4.90;;;;;;;;;;5029949;28;20045;-73
2023/07/06 02:19:43;;;;;;;10.40;4.40;;;;;;;;;;5032793;28;20103;-73
2023/07/06 02:22:09;;;;;;;9.45;4.47;;;;;;;;;;5019665;28;20491;-73
2023/07/06 02:24:36;;;;;;;10.85;4.82;;;;;;;;;;5032858;28;20154;-73
2023/07/06 02:27:02;;;;;;;9.23;5.00;;;;;;;;;;5032753;28;20026;-73
2023/07/06 02:29:28;;;;;;;7.93;5.43;;;;;;;;;;5029319;28;20105;-73
2023/07/06 02:31:54;;;;;;;12.75;5.35;;;;;;;;;;5032581;28;20171;-73
2023/07/06 02:34:25;;;;;;;8.52;5.03;;;;;;;;;;5025308;28;20423;-73
2023/07/06 02:36:55;;;;;;;8.88;4.30;;;;;;;;;;5013180;28;20036;-73
2023/07/06 02:39:24;;;;;;;9.45;4.88;;;;;;;;;;5012993;28;20025;-73
2023/07/06 02:41:53;;;;;;;6.95;4.75;;;;;;;;;;5013223;28;20018;-73
2023/07/06 02:44:22;;;;;;;9.98;4.65;;;;;;;;;;5022905;28;20569;-73
2023/07/06 02:46:48;;;;;;;9.50;4.88;;;;;;;;;;5025128;28;20022;-74
2023/07/06 02:49:15;;;;;;;7.68;4.95;;;;;;;;;;5032463;28;20453;-74
2023/07/06 02:51:42;;;;;;;6.45;4.85;;;;;;;;;;5032464;28;20393;-73
2023/07/06 02:54:10;;;;;;;8.65;4.80;;;;;;;;;;5029022;28;20475;-73
2023/07/06 02:56:36;;;;;;;10.63;5.28;;;;;;;;;;5022867;28;20105;-73
2023/07/06 02:59:02;;;;;;;13.15;5.47;;;;;;;;;;5028682;28;20022;-73
2023/07/06 03:01:29;;;;;;;8.82;5.35;;;;;;;;;;5012634;28;20084;-74
2023/07/06 03:03:55;;;;;;;8.77;5.43;;;;;;;;;;5012124;28;20042;-73
2023/07/06 03:06:21;;;;;;;9.20;5.85;;;;;;;;;;5012618;28;20026;-74
2023/07/06 03:08:47;;;;;;;10.40;6.30;;;;;;;;;;5012569;28;20520;-73
2023/07/06 03:11:14;;;;;;;12.13;6.07;;;;;;;;;;5012680;28;20026;-73
2023/07/06 03:13:41;;;;;;;11.80;5.80;;;;;;;;;;5029637;28;20029;-74
2023/07/06 03:16:10;;;;;;;10.40;6.13;;;;;;;;;;5032132;28;20024;-74
2023/07/06 03:18:36;;;;;;;12.00;5.95;;;;;;;;;;5032135;28;20384;-74
2023/07/06 03:21:03;;;;;;;8.80;5.25;;;;;;;;;;5032186;28;20032;-73
2023/07/06 03:23:29;;;;;;;13.32;6.20;;;;;;;;;;5032064;28;20026;-73
2023/07/06 03:25:55;;;;;;;14.70;6.63;;;;;;;;;;5032125;28;20022;-73
2023/07/06 03:28:28;;;;;;;10.70;5.97;;;;;;;;;;5014650;28;20021;-73
2023/07/06 03:30:55;;;;;;;9.10;5.53;;;;;;;;;;5012641;28;20109;-73
2023/07/06 03:33:24;;;;;;;10.45;5.95;;;;;;;;;;5012261;28;20105;-73
2023/07/06 03:35:53;;;;;;;13.90;6.80;;;;;;;;;;5012696;28;20471;-73
2023/07/06 03:38:20;;;;;;;10.98;6.30;;;;;;;;;;5012625;28;20014;-73
2023/07/06 03:40:49;;;;;;;14.48;5.85;;;;;;;;;;5012292;28;20036;-73
2023/07/06 03:43:16;;;;;;;10.40;6.05;;;;;;;;;;5031925;28;20056;-73
2023/07/06 03:45:42;;;;;;;12.77;5.80;;;;;;;;;;5032054;28;20676;-73
2023/07/06 03:48:08;;;;;;;16.05;6.53;;;;;;;;;;5025503;28;20515;-73
2023/07/06 03:50:34;;;;;;;15.80;5.57;;;;;;;;;;5012232;28;20113;-74
2023/07/06 03:53:00;;;;;;;12.25;6.50;;;;;;;;;;5012143;28;20109;-73
2023/07/06 03:55:27;;;;;;;17.92;6.18;;;;;;;;;;5012186;28;20523;-73
2023/07/06 03:57:53;;;;;;;15.23;6.60;;;;;;;;;;5012181;28;20114;-73
2023/07/06 04:00:22;;;;;;;14.27;6.60;;;;;;;;;;5015057;28;20026;-74
2023/07/06 04:02:54;;;;;;;17.55;6.45;;;;;;;;;;5015534;28;20415;-74
2023/07/06 04:05:25;;;;;;;17.00;6.47;;;;;;;;;;5017779;28;20041;-73
2023/07/06 04:07:54;;;;;;;16.40;6.38;;;;;;;;;;5035417;28;20361;-73
2023/07/06 04:10:20;;;;;;;18.65;6.10;;;;;;;;;;5035516;28;20378;-74
2023/07/06 04:12:48;;;;;;;12.40;6.53;;;;;;;;;;5035378;28;20029;-74
2023/07/06 04:15:19;;;;;;;15.52;7.20;;;;;;;;;;5020249;28;20544;-74
2023/07/06 04:17:52;;;;;;;21.45;7.75;;;;;;;;;;5015549;28;20465;-74
2023/07/06 04:20:19;;;;;;;19.15;7.82;;;;;;;;;;5015651;28;20018;-73
2023/07/06 04:22:46;;;;;;;21.23;9.60;;;;;;;;;;5015300;28;20411;-74
2023/07/06 04:25:14;;;;;;;22.17;8.52;;;;;;;;;;5015611;28;20459;-74
2023/07/06 04:27:42;;;;;;;18.77;8.55;;;;;;;;;;5015364;28;20133;-73
2023/07/06 04:30:09;;;;;;;18.35;8.32;;;;;;;;;;5015304;28;20029;-73
2023/07/06 04:32:36;;;;;;;17.85;8.45;;;;;;;;;;5015205;28;20033;-74
2023/07/06 04:35:02;;;;;;;17.17;7.85;;;;;;;;;;5015165;28;20022;-73
2023/07/06 04:37:28;;;;;;;15.23;6.85;;;;;;;;;;5015059;28;20390;-74
2023/07/06 04:39:55;;;;;;;19.15;6.93;;;;;;;;;;5030851;28;20522;-74
2023/07/06 04:42:22;;;;;;;12.57;6.80;;;;;;;;;;5034835;28;20357;-74
2023/07/06 04:44:48;;;;;;;13.48;6.03;;;;;;;;;;5035093;28;20474;-74
2023/07/06 04:47:14;;;;;;;11.70;5.38;;;;;;;;;;5034295;28;20029;-74
2023/07/06 04:49:40;;;;;;;10.95;4.85;;;;;;;;;;5034610;28;20034;-74
2023/07/06 04:52:07;;;;;;;8.70;4.68;;;;;;;;;;5034816;28;20032;-74
2023/07/06 04:54:33;;;;;;;10.65;4.95;;;;;;;;;;5034662;28;20026;-74
2023/07/06 04:56:59;;;;;;;6.70;4.32;;;;;;;;;;5034841;28;20022;-75
2023/07/06 04:59:25;;;;;;;7.63;3.95;;;;;;;;;;5034468;28;20018;-74
2023/07/06 05:01:51;;;;;;;8.07;3.97;;;;;;;;;;5034428;28;20354;-74
2023/07/06 05:04:18;;;;;;;12.20;4.53;;;;;;;;;;5033558;28;20472;-74
2023/07/06 05:06:45;;;;;;;8.85;4.30;;;;;;;;;;5034122;28;20025;-74
2023/07/06 05:09:12;;;;;;;8.73;4.40;;;;;;;;;;5016180;28;20124;-75
2023/07/06 05:11:38;;;;;;;7.57;4.28;;;;;;;;;;5014571;28;20029;-75
2023/07/06 05:14:04;;;;;;;10.82;4.50;;;;;;;;;;5014848;28;20053;-75
2023/07/06 05:16:30;;;;;;;10.35;4.25;;;;;;;;;;4996056;28;20109;-75
2023/07/06 05:18:57;;;;;;;8.52;4.50;;;;;;;;;;4995053;28;20449;-75
2023/07/06 05:21:24;;;;;;;9.60;4.28;;;;;;;;;;4996668;28;20462;-75
2023/07/06 05:23:50;;;;;;;9.13;4.00;;;;;;;;;;5014672;28;20175;-75
2023/07/06 05:26:19;;;;;;;8.63;4.20;;;;;;;;;;5014456;28;20029;-75
2023/07/06 05:28:45;;;;;;;8.82;4.30;;;;;;;;;;5014524;28;20131;-75
2023/07/06 05:31:11;;;;;;;7.18;4.00;;;;;;;;;;5014327;28;20484;-75
2023/07/06 05:33:38;;;;;;;10.73;4.20;;;;;;;;;;5014446;28;20425;-75
2023/07/06 05:36:04;;;;;;;10.20;4.28;;;;;;;;;;5014892;28;20026;-75
2023/07/06 05:38:30;;;;;;;9.80;4.07;;;;;;;;;;5015301;28;20034;-75
2023/07/06 05:41:01;;;;;;;11.45;4.15;;;;;;;;;;5014549;28;20025;-75
2023/07/06 05:43:27;;;;;;;11.65;3.88;;;;;;;;;;5014285;28;20025;-75
2023/07/06 05:45:53;;;;;;;9.75;3.67;;;;;;;;;;5014110;28;20600;-75
2023/07/06 05:48:19;;;;;;;8.82;3.60;;;;;;;;;;5014005;28;20034;-75
2023/07/06 05:50:46;;;;;;;8.25;3.47;;;;;;;;;;5014008;28;20037;-75
2023/07/06 05:53:12;;;;;;;6.90;3.45;;;;;;;;;;5013543;28;20057;-75
2023/07/06 05:55:40;;;;;;;6.40;3.38;;;;;;;;;;5013584;28;20523;-74
2023/07/06 05:58:06;;;;;;;7.38;3.67;;;;;;;;;;5013888;28;20053;-74
2023/07/06 06:00:36;;;;;;;7.72;3.40;;;;;;;;;;5013834;28;20057;-74
2023/07/06 06:03:02;;;;;;;9.10;3.17;;;;;;;;;;5013891;28;20342;-74
2023/07/06 06:05:29;;;;;;;5.80;2.95;;;;;;;;;;5014351;28;20592;-74
2023/07/06 06:07:58;;;;;;;8.50;2.83;;;;;;;;;;5014715;28;20365;-74
2023/07/06 06:10:24;;;;;;;6.03;2.70;;;;;;;;;;5013793;28;20068;-74
2023/07/06 06:12:50;;;;;;;5.03;2.55;;;;;;;;;;5013337;28;20065;-74
2023/07/06 06:15:17;;;;;;;6.60;2.60;;;;;;;;;;5013436;28;20033;-74
2023/07/06 06:17:44;;;;;;;4.72;2.42;;;;;;;;;;5012799;28;20418;-74
2023/07/06 06:20:11;;;;;;;5.55;2.40;;;;;;;;;;5013722;28;20118;-74
2023/07/06 06:22:37;;;;;;;6.90;2.20;;;;;;;;;;5011964;28;20029;-74
2023/07/06 06:25:04;;;;;;;5.55;2.30;;;;;;;;;;5013385;28;20384;-75
2023/07/06 06:27:30;;;;;;;6.07;2.28;;;;;;;;;;5013281;28;20068;-74
2023/07/06 06:29:56;;;;;;;4.63;2.25;;;;;;;;;;5014214;28;20405;-74
2023/07/06 06:32:24;;;;;;;6.07;1.90;;;;;;;;;;5014141;28;20026;-74
2023/07/06 06:34:50;;;;;;;4.95;2.33;;;;;;;;;;5013527;28;20022;-74
2023/07/06 06:37:16;;;;;;;5.28;1.90;;;;;;;;;;5013637;28;20030;-75
2023/07/06 06:39:43;;;;;;;3.55;1.45;;;;;;;;;;5014077;28;20028;-75
2023/07/06 06:42:18;;;;;;;4.40;1.98;;;;;;;;;;5013332;28;20109;-75
2023/07/06 06:44:45;;;;;;;7.07;1.90;;;;;;;;;;5013738;28;20069;-75
2023/07/06 06:47:11;;;;;;;2.45;1.40;;;;;;;;;;5013445;28;20029;-75
2023/07/06 06:49:38;;;;;;;4.43;1.50;;;;;;;;;;5013030;28;20030;-74
2023/07/06 06:52:04;;;;;;;6.25;1.63;;;;;;;;;;5005708;28;20026;-75
2023/07/06 06:54:30;;;;;;;2.78;1.52;;;;;;;;;;5006027;28;20041;-75
2023/07/06 06:56:57;;;;;;;5.63;1.50;;;;;;;;;;5013022;28;20022;-75
2023/07/06 06:59:23;;;;;;;5.38;1.77;;;;;;;;;;5012558;28;20029;-75
2023/07/06 07:01:50;;;;;;;4.30;1.80;;;;;;;;;;5012746;28;20044;-75
2023/07/06 07:04:17;;;;;;;3.90;1.88;;;;;;;;;;5012535;28;20065;-75
2023/07/06 07:06:43;;;;;;;6.85;1.92;;;;;;;;;;5012761;28;20068;-75
2023/07/06 07:09:10;;;;;;;4.97;1.85;;;;;;;;;;5012801;28;20378;-75
2023/07/06 07:11:36;;;;;;;3.80;1.70;;;;;;;;;;5012945;28;20030;-75
2023/07/06 07:14:02;;;;;;;3.97;1.80;;;;;;;;;;5012922;28;20034;-75
2023/07/06 07:16:29;;;;;;;3.88;1.70;;;;;;;;;;5012565;28;20037;-75
2023/07/06 07:18:55;;;;;;;2.42;1.55;;;;;;;;;;5012939;28;20108;-75
2023/07/06 07:21:21;;;;;;;4.72;1.70;;;;;;;;;;5012658;28;20026;-75
2023/07/06 07:23:48;;;;;;;2.67;1.50;;;;;;;;;;5012592;28;20516;-75
2023/07/06 07:26:24;;;;;;;3.38;1.60;;;;;;;;;;5010679;28;20097;-75
2023/07/06 07:28:51;;;;;;;4.38;1.83;;;;;;;;;;4992942;28;20105;-75
2023/07/06 07:31:18;;;;;;;3.10;1.60;;;;;;;;;;4993099;28;20045;-75
2023/07/06 07:33:46;;;;;;;7.22;1.90;;;;;;;;;;4995560;28;20038;-75
2023/07/06 07:36:13;;;;;;;5.32;2.00;;;;;;;;;;5016696;28;20014;-75
2023/07/06 07:38:39;;;;;;;11.18;2.05;;;;;;;;;;5016379;28;20026;-75
2023/07/06 07:41:06;;;;;;;2.45;1.65;;;;;;;;;;5016187;28;20022;-75
2023/07/06 07:43:34;;;;;;;2.72;1.60;;;;;;;;;;5016519;28;20022;-75
2023/07/06 07:46:01;;;;;;;3.05;1.30;;;;;;;;;;5016195;28;20496;-75
2023/07/06 07:48:27;;;;;;;2.08;1.30;;;;;;;;;;5016531;28;20029;-76
2023/07/06 07:50:58;;;;;;;2.33;1.52;;;;;;;;;;5016108;28;20367;-76
2023/07/06 07:53:25;;;;;;;4.13;1.33;;;;;;;;;;5016068;28;20527;-75
2023/07/06 07:55:53;;;;;;;2.78;1.45;;;;;;;;;;5016324;28;20057;-76
2023/07/06 07:58:19;;;;;;;3.63;1.60;;;;;;;;;;5016207;28;20049;-76
2023/07/06 08:00:52;;;;;;;3.75;1.70;;;;;;;;;;5015929;28;20053;-76
2023/07/06 08:03:18;;;;;;;2.53;1.30;;;;;;;;;;5015612;28;20081;-76
2023/07/06 08:05:44;;;;;;;2.85;1.17;;;;;;;;;;5015834;28;20057;-76
2023/07/06 08:08:11;;;;;;;2.63;1.30;;;;;;;;;;5015960;28;20026;-76
2023/07/06 08:10:41;;;;;;;4.38;1.75;;;;;;;;;;5015690;28;20444;-76
2023/07/06 08:13:09;;;;;;;2.88;1.83;;;;;;;;;;5015616;28;20030;-76
2023/07/06 08:15:38;;;;;;;7.30;1.75;;;;;;;;;;5015730;28;20018;-76
2023/07/06 08:18:06;;;;;;;4.30;1.50;;;;;;;;;;5015498;28;20022;-76
2023/07/06 08:20:32;;;;;;;3.67;1.90;;;;;;;;;;5015699;28;20021;-75
2023/07/06 08:22:59;;;;;;;3.13;1.42;;;;;;;;;;5015445;28;20018;-75
2023/07/06 08:25:27;;;;;;;2.90;1.40;;;;;;;;;;5015508;28;20516;-75
2023/07/06 08:27:54;;;;;;;2.55;1.30;;;;;;;;;;5015592;28;20018;-75
2023/07/06 08:30:23;;;;;;;3.75;1.50;;;;;;;;;;5014945;28;20033;-75
2023/07/06 08:32:50;;;;;;;3.35;1.30;;;;;;;;;;5007509;28;20507;-75
2023/07/06 08:35:19;;;;;;;3.72;1.38;;;;;;;;;;5007636;28;20458;-76
2023/07/06 08:37:45;;;;;;;4.40;1.40;;;;;;;;;;5014477;28;20108;-75
2023/07/06 08:40:17;;;;;;;2.70;1.27;;;;;;;;;;5007383;28;20057;-75
2023/07/06 08:42:45;;;;;;;2.88;1.27;;;;;;;;;;5005830;28;20084;-75
2023/07/06 08:45:19;;;;;;;3.75;1.67;;;;;;;;;;5014310;28;20030;-75
2023/07/06 08:47:47;;;;;;;2.00;1.23;;;;;;;;;;5015303;28;20048;-75
2023/07/06 08:50:15;;;;;;;1.90;1.27;;;;;;;;;;5014994;28;20118;-75
2023/07/06 08:52:42;;;;;;;2.17;1.45;;;;;;;;;;5015115;28;20050;-75
2023/07/06 08:55:13;;;;;;;2.85;1.40;;;;;;;;;;5015000;28;20026;-75
2023/07/06 08:57:39;;;;;;;3.22;1.40;;;;;;;;;;5015194;28;20025;-75
2023/07/06 09:00:11;;;;;;;2.38;1.50;;;;;;;;;;5015158;28;20080;-75
2023/07/06 09:02:37;;;;;;;2.63;1.50;;;;;;;;;;5013375;28;20700;-75
2023/07/06 09:05:08;;;;;;;2.45;1.35;;;;;;;;;;5014950;28;20437;-76
2023/07/06 09:07:35;;;;;;;3.15;1.63;;;;;;;;;;5014701;28;20578;-76
2023/07/06 09:10:04;;;;;;;3.38;1.80;;;;;;;;;;5014586;28;20022;-76
2023/07/06 09:12:32;;;;;;;4.10;1.90;;;;;;;;;;5014862;28;20026;-76
2023/07/06 09:14:59;;;;;;;3.50;2.30;;;;;;;;;;5014903;28;20033;-76
2023/07/06 09:17:26;;;;;;;3.30;2.17;;;;;;;;;;5014487;28;20361;-76
2023/07/06 09:19:52;;;;;;;3.15;1.98;;;;;;;;;;5014789;28;20033;-77
2023/07/06 09:22:18;;;;;;;5.65;2.60;;;;;;;;;;5014477;28;20030;-76
2023/07/06 09:24:47;;;;;;;5.70;2.63;;;;;;;;;;5014428;28;20025;-77
2023/07/06 09:27:22;;;;;;;5.40;2.20;;;;;;;;;;5014309;28;20022;-76
2023/07/06 09:30:00;;;;;;;6.22;2.35;;;;;;;;;;5014312;28;20030;-76
2023/07/06 09:32:27;;;;;;;4.25;2.25;;;;;;;;;;5014683;28;20370;-76
2023/07/06 09:35:02;;;;;;;3.70;2.05;;;;;;;;;;5014247;28;20452;-76
2023/07/06 09:37:28;;;;;;;2.50;1.73;;;;;;;;;;5014202;28;20778;-76
2023/07/06 09:40:01;;;;;;;7.13;2.45;;;;;;;;;;5014354;28;20604;-76
2023/07/06 09:42:28;;;;;;;3.85;2.50;;;;;;;;;;5012306;28;20060;-76
2023/07/06 09:44:54;;;;;;;5.72;2.10;;;;;;;;;;5013872;28;20636;-77
2023/07/06 09:47:21;;;;;;;2.55;2.05;;;;;;;;;;5014015;28;20063;-77
2023/07/06 09:49:51;;;;;;;3.72;1.70;;;;;;;;;;5014199;28;20113;-78
2023/07/06 09:52:18;;;;;;;;;;;;;;;;;;5014924;28;20034;-77
2023/07/06 09:54:51;;;;;;;4.35;1.80;;;;;;;;;;5014214;28;19963;-77
2023/07/06 09:57:18;;;;;;;2.97;1.80;;;;;;;;;;5013123;28;20034;-77
2023/07/06 09:59:46;;;;;;;3.17;1.50;;;;;;;;;;5014230;28;20022;-78
2023/07/06 10:02:20;;;;;;;3.92;1.48;;;;;;;;;;5013949;28;20064;-78
2023/07/06 10:04:53;;;;;;;4.53;1.70;;;;;;;;;;5004663;28;20049;-78
2023/07/06 10:07:27;;;;;;;5.82;1.52;;;;;;;;;;4994622;28;20031;-78
2023/07/06 10:10:06;;;;;;;4.43;1.42;;;;;;;;;;4994298;28;20072;-78
2023/07/06 10:12:48;;;;;;;2.63;1.00;;;;;;;;;;4994141;28;20630;-77
2023/07/06 10:15:17;;;;;;;2.10;1.50;;;;;;;;;;4993907;28;20054;-78
2023/07/06 10:17:46;;;;;;;3.45;1.20;;;;;;;;;;4994218;28;20026;-77
2023/07/06 10:20:12;;;;;;;;;;;;;;;;;;4994249;28;20106;-78
2023/07/06 10:22:50;;;;;;;2.65;1.23;;;;;;;;;;4995688;28;19992;-77
2023/07/06 10:25:24;;;;;;;3.97;1.25;;;;;;;;;;5005382;28;20385;-78
2023/07/06 10:27:55;;;;;;;2.00;1.17;;;;;;;;;;5013102;28;20346;-78
2023/07/06 10:30:25;;;;;;;3.38;1.20;;;;;;;;;;5012906;28;20491;-78
2023/07/06 10:32:53;;;;;;;2.38;1.00;;;;;;;;;;4994466;28;20038;-77
2023/07/06 10:35:32;;;;;;;5.28;1.58;;;;;;;;;;5013266;28;20089;-78
2023/07/06 10:37:58;;;;;;;2.65;1.20;;;;;;;;;;5013029;28;20026;-78
2023/07/06 10:40:28;;;;;;;3.65;1.30;;;;;;;;;;5013042;28;20034;-78
2023/07/06 10:43:11;;;;;;;1.98;1.00;;;;;;;;;;5013017;28;20025;-77
2023/07/06 10:45:42;;;;;;;3.70;1.33;;;;;;;;;;5013231;28;20409;-78
2023/07/06 10:48:13;;;;;;;2.42;1.20;;;;;;;;;;5012951;28;20020;-78
2023/07/06 10:50:57;;;;;;;2.45;1.48;;;;;;;;;;5012886;28;20646;-77
2023/07/06 10:53:33;;;;;;;3.42;1.48;;;;;;;;;;5012528;28;20026;-77
2023/07/06 10:56:02;;;;;;;2.83;1.10;;;;;;;;;;5012569;28;20453;-77
2023/07/06 10:58:30;;;;;;;1.52;1.35;;;;;;;;;;5012925;28;20061;-78
2023/07/06 11:01:00;;;;;;;2.53;1.30;;;;;;;;;;5012930;28;20531;-78
2023/07/06 11:03:27;;;;;;;3.85;1.52;;;;;;;;;;5012535;28;20050;-78
2023/07/06 11:06:06;;;;;;;3.72;1.50;;;;;;;;;;4996013;28;20057;-77
2023/07/06 11:08:54;;;;;;;6.18;1.90;;;;;;;;;;4992714;28;20022;-77
2023/07/06 11:11:21;;;;;;;2.78;1.60;;;;;;;;;;4993320;28;20054;-78
2023/07/06 11:13:51;;;;;;;5.25;1.75;;;;;;;;;;4993085;28;20036;-77
2023/07/06 11:16:26;;;;;;;4.15;1.95;;;;;;;;;;4993204;28;20018;-78
2023/07/06 11:18:54;;;;;;;3.55;2.08;;;;;;;;;;4993318;28;20050;-77
2023/07/06 11:21:43;;;;;;;2.10;1.40;;;;;;;;;;4992858;28;20371;-78
2023/07/06 11:24:11;;;;;;;2.13;1.60;;;;;;;;;;4993071;28;20050;-78
2023/07/06 11:26:54;;;;;;;3.15;2.00;;;;;;;;;;4992917;28;20029;-78
2023/07/06 11:29:21;;;;;;;3.65;1.60;;;;;;;;;;4993286;28;20030;-78
2023/07/06 11:32:00;;;;;;;3.88;1.80;;;;;;;;;;4992749;28;20026;-78
2023/07/06 11:34:34;;;;;;;2.78;1.52;;;;;;;;;;4993214;28;20084;-78
2023/07/06 11:37:00;;;;;;;4.22;1.50;;;;;;;;;;4993061;28;20078;-78
2023/07/06 11:39:31;;;;;;;4.82;1.50;;;;;;;;;;4992769;28;20022;-78
2023/07/06 11:42:05;;;;;;;8.70;1.85;;;;;;;;;;4992617;28;20378;-78
2023/07/06 11:44:47;;;;;;;2.10;1.42;;;;;;;;;;4993083;28;20072;-78
2023/07/06 11:47:29;;;;;;;4.35;1.80;;;;;;;;;;4992740;28;20026;-78
2023/07/06 11:49:59;;;;;;;3.38;1.40;;;;;;;;;;4992756;28;20027;-78
2023/07/06 11:52:26;;;;;;;2.42;1.70;;;;;;;;;;5002057;28;20400;-78
2023/07/06 11:55:05;;;;;;;3.95;1.65;;;;;;;;;;5012780;28;20030;-79
2023/07/06 11:57:43;;;;;;;4.53;1.80;;;;;;;;;;5013376;28;20026;-78
2023/07/06 12:03:10;;;;;;;6.45;2.38;;;;;;;;;;4988746;28;20042;-78
2023/07/06 12:05:39;;;;;;;4.93;2.08;;;;;;;;;;5012739;28;20034;-78
2023/07/06 12:08:19;;;;;;;3.40;1.67;;;;;;;;;;5012963;28;20037;-78
2023/07/06 12:10:48;;;;;;;4.03;1.52;;;;;;;;;;5013840;28;20852;-78
2023/07/06 12:13:22;;;;;;;5.35;1.50;;;;;;;;;;5013397;28;20037;-78
2023/07/06 12:15:51;;;;;;;6.00;1.13;;;;;;;;;;5013485;28;20029;-78
2023/07/06 12:18:24;;;;;;;3.90;1.35;;;;;;;;;;5012994;28;20022;-78
2023/07/06 12:20:55;;;;;;;2.05;1.10;;;;;;;;;;5013319;28;20088;-78
2023/07/06 12:23:22;;;;;;;4.13;1.10;;;;;;;;;;5016303;28;20049;-78
2023/07/06 12:25:48;;;;;;;3.08;1.02;;;;;;;;;;5014850;28;20021;-78
2023/07/06 12:28:15;;;;;;;3.35;1.20;;;;;;;;;;5017249;28;20029;-78
2023/07/06 12:30:43;;;;;;;4.03;1.75;;;;;;;;;;5016963;28;20025;-77
2023/07/06 12:33:13;;;;;;;3.88;1.40;;;;;;;;;;5015799;28;20025;-77
2023/07/06 12:35:40;;;;;;;2.47;1.30;;;;;;;;;;5015622;28;20022;-77
2023/07/06 12:38:09;;;;;;;2.17;1.20;;;;;;;;;;5015302;28;20018;-78
2023/07/06 12:40:36;;;;;;;2.83;1.23;;;;;;;;;;5017300;28;20034;-78
2023/07/06 12:43:03;;;;;;;3.20;1.13;;;;;;;;;;5015989;28;20026;-78
2023/07/06 12:45:30;;;;;;;2.05;1.33;;;;;;;;;;5016093;28;20018;-78
2023/07/06 12:48:00;;;;;;;4.20;1.45;;;;;;;;;;5016314;28;20024;-77
2023/07/06 12:50:35;;;;;;;3.97;1.30;;;;;;;;;;5016765;28;20066;-77
2023/07/06 12:53:22;;;;;;;3.38;1.30;;;;;;;;;;5019926;28;20026;-78
2023/07/06 12:55:49;;;;;;;3.47;1.20;;;;;;;;;;5008790;28;20038;-77
2023/07/06 12:58:17;;;;;;;4.57;1.63;;;;;;;;;;5019575;28;20026;-78
2023/07/06 13:00:46;;;;;;;6.30;1.60;;;;;;;;;;5018563;28;20034;-78
2023/07/06 13:03:13;;;;;;;3.45;1.55;;;;;;;;;;5017849;28;20046;-78
2023/07/06 13:05:39;;;;;;;3.22;1.52;;;;;;;;;;5017418;28;20025;-78
2023/07/06 13:08:08;;;;;;;4.78;1.70;;;;;;;;;;5018641;28;20045;-78
2023/07/06 13:10:36;;;;;;;;;;;;;;;;;;5024156;28;20032;-78
2023/07/06 13:13:07;;;;;;;2.63;1.63;;;;;;;;;;5026882;28;19992;-77
2023/07/06 13:15:46;;;;;;;5.60;1.95;;;;;;;;;;5016379;28;20041;-78
2023/07/06 13:18:16;;;;;;;4.72;2.03;;;;;;;;;;5015235;28;20029;-77
2023/07/06 13:20:44;;;;;;;3.58;1.55;;;;;;;;;;5016250;28;20056;-78
2023/07/06 13:23:10;;;;;;;4.07;1.80;;;;;;;;;;5019244;28;20492;-78
2023/07/06 13:25:44;;;;;;;3.42;1.42;;;;;;;;;;5016027;28;20026;-77
2023/07/06 13:28:14;;;;;;;5.13;1.80;;;;;;;;;;5017002;28;20014;-77
2023/07/06 13:30:43;;;;;;;4.50;1.42;;;;;;;;;;5014956;28;20025;-78
2023/07/06 13:33:12;;;;;;;3.40;1.65;;;;;;;;;;5015528;28;20153;-77
2023/07/06 13:35:38;;;;;;;3.40;1.50;;;;;;;;;;5016476;28;20025;-77
2023/07/06 13:38:04;;;;;;;5.07;1.80;;;;;;;;;;5015008;28;20022;-78
2023/07/06 13:40:30;;;;;;;5.25;1.98;;;;;;;;;;5015680;28;20033;-77
2023/07/06 13:42:59;;;;;;;4.30;1.80;;;;;;;;;;5016487;28;20022;-78
2023/07/06 13:45:32;;;;;;;7.78;1.90;;;;;;;;;;5015603;28;20356;-77
2023/07/06 13:47:58;;;;;;;5.00;1.65;;;;;;;;;;5015914;28;20021;-78
2023/07/06 13:50:25;;;;;;;4.65;1.60;;;;;;;;;;5015927;28;20128;-78
2023/07/06 13:52:52;;;;;;;7.72;1.80;;;;;;;;;;5015883;28;20026;-78
2023/07/06 13:55:29;;;;;;;5.93;2.22;;;;;;;;;;5015486;28;20030;-78
2023/07/06 13:57:56;;;;;;;4.32;1.83;;;;;;;;;;5015184;28;20026;-77
2023/07/06 14:00:22;;;;;;;3.55;1.70;;;;;;;;;;5016830;28;20366;-78
2023/07/06 14:02:49;;;;;;;4.10;1.52;;;;;;;;;;5015476;28;20127;-78
2023/07/06 14:05:21;;;;;;;6.57;1.83;;;;;;;;;;5015518;28;20026;-78
2023/07/06 14:07:47;;;;;;;3.67;1.40;;;;;;;;;;5016187;28;20153;-78
2023/07/06 14:10:17;;;;;;;6.75;1.60;;;;;;;;;;5015886;28;20453;-77
2023/07/06 14:12:44;;;;;;;4.45;1.40;;;;;;;;;;5015873;28;20037;-78
2023/07/06 14:15:10;;;;;;;4.07;1.83;;;;;;;;;;5014188;28;20026;-78
2023/07/06 14:17:36;;;;;;;4.18;1.40;;;;;;;;;;5013981;28;20097;-77
2023/07/06 14:20:03;;;;;;;5.28;1.77;;;;;;;;;;5014098;28;20026;-77
2023/07/06 14:22:29;;;;;;;2.38;1.30;;;;;;;;;;5013953;28;20025;-78
2023/07/06 14:24:55;;;;;;;2.40;1.40;;;;;;;;;;5013332;28;20045;-78
2023/07/06 14:27:22;;;;;;;4.88;1.42;;;;;;;;;;5013413;28;20049;-78
2023/07/06 14:29:48;;;;;;;3.13;1.23;;;;;;;;;;5013808;28;20022;-77
2023/07/06 14:32:15;;;;;;;3.97;1.55;;;;;;;;;;5012938;28;20026;-78
2023/07/06 14:34:44;;;;;;;3.92;1.40;;;;;;;;;;5013622;28;20516;-78
2023/07/06 14:37:10;;;;;;;;;;;;;;;;;;5013719;28;20104;-78
2023/07/06 14:39:36;;;;;;;4.10;2.03;;;;;;;;;;5013309;28;20000;-79
2023/07/06 14:42:03;;;;;;;9.43;3.10;;;;;;;;;;5015295;28;20042;-78
2023/07/06 14:44:29;;;;;;;5.63;1.65;;;;;;;;;;5015259;28;20113;-78
2023/07/06 14:46:55;;;;;;;4.35;1.45;;;;;;;;;;5014483;28;20059;-79
2023/07/06 14:49:21;;;;;;;5.28;1.40;;;;;;;;;;5014321;28;20075;-78
2023/07/06 14:51:47;;;;;;;2.80;1.42;;;;;;;;;;5014372;28;20038;-79
2023/07/06 14:54:13;;;;;;;4.13;1.50;;;;;;;;;;5015463;28;20034;-79